This is the latest recevied weather packets stored in our database for station/object AA7F. If no packets are shown the sender has not sent any weather packets the latest 10 day(s).
| Time | Temp. | Humidity | Pressure | Rain* | Wind** | Luminosity | Snow |
|---|---|---|---|---|---|---|---|
| 1777285434 | 2.78° C | 88% | 1012.1 hPa | 0 mm | - | 0 W/m² | - |
| 1777285131 | 2.78° C | 88% | 1012.4 hPa | 0 mm | - | 0 W/m² | - |
| 1777284829 | 3.33° C | 87% | 1012.1 hPa | 0 mm | - | 0 W/m² | - |
| 1777284526 | 3.33° C | 87% | 1012.3 hPa | 0 mm | - | 0 W/m² | - |
| 1777284222 | 3.89° C | 86% | 1012.2 hPa | 0 mm | - | 0 W/m² | - |
| 1777282107 | 4.44° C | 83% | 1012.2 hPa | 0 mm | - | 0 W/m² | - |
| 1777281805 | 4.44° C | 83% | 1012 hPa | 0 mm | - | 0 W/m² | - |
| 1777281502 | 3.89° C | 83% | 1012.1 hPa | 0 mm | - | 0 W/m² | - |
| 1777281198 | 3.89° C | 84% | 1012.1 hPa | 0 mm | - | 0 W/m² | - |
| 1777280895 | 3.89° C | 84% | 1012 hPa | 0 mm | - | 0 W/m² | - |
| 1777280289 | 5° C | 81% | 1012.1 hPa | 0 mm | - | 0 W/m² | - |
| 1777279985 | 5° C | 81% | 1012 hPa | 0 mm | - | 0 W/m² | - |
| 1777279683 | 5° C | 81% | 1012.3 hPa | 0 mm | - | 0 W/m² | - |
| 1777279381 | 5° C | 81% | 1012.3 hPa | 0 mm | - | 0 W/m² | - |
| 1777279077 | 4.44° C | 82% | 1012 hPa | 0 mm | - | 0 W/m² | - |
| 1777278773 | 4.44° C | 82% | 1012 hPa | 0 mm | - | 0 W/m² | - |
| 1777278470 | 5° C | 81% | 1012 hPa | 0 mm | - | 0 W/m² | - |
| 1777278166 | 5° C | 81% | 1012 hPa | 0 mm | - | 0 W/m² | - |
| 1777277863 | 5° C | 81% | 1012.1 hPa | 0 mm | - | 0 W/m² | - |
| 1777277559 | 3.89° C | 84% | 1012.1 hPa | 0 mm | - | 0 W/m² | - |
| 1777277255 | 3.89° C | 85% | 1012.3 hPa | 0 mm | - | 0 W/m² | - |
| 1777276951 | 3.89° C | 83% | 1012.2 hPa | 0 mm | - | 0 W/m² | - |
| 1777276647 | 5° C | 79% | 1012.3 hPa | 0 mm | - | 0 W/m² | - |
| 1777276343 | 5.56° C | 79% | 1011.9 hPa | 0 mm | - | 0 W/m² | - |
| 1777276040 | 5.56° C | 78% | 1012.1 hPa | 0 mm | - | 0 W/m² | - |
* Rain latest hour (hover to see other rain measurements)
** Current wind speed in m/s (hover to see current wind gust speed)